Veendam — PHEO — position and weather

sailwx.info

Track history (hours):
 
Tides and Currents Weather Stations Pressure Air Temp Water Temp Dewpoint Dewpoint Depression Visibility Wind Speed Wind Dir Waves Ship Positions

Veendam (Netherlands)

Last reported at 2017-Sep-17 02:36 UTC. Time now 2017-Sep-20 00:34 UTC.
Position N 42°59' W 069°45'.

Type: Ship. MMSI: 246506000.

Date/timePositionNaut miles runAvg speedWind from/ knotsBaromVisibWave heightAir tempDewpointWater temp
2017-Sep-17 02:36N 42°59' W 069°45'113.7
2017-Sep-17 02:30N 42°59' W 069°47'714.2
2017-Sep-17 01:59N 42°54' W 069°55'816.6
2017-Sep-17 01:30N 42°49' W 070°03'816.7
2017-Sep-17 01:00N 42°44' W 070°12'816.7
2017-Sep-17 00:30N 42°39' W 070°21'816.4
2017-Sep-17 00:00N 42°34' W 070°29'816.2
2017-Sep-16 23:30N 42°30' W 070°39'816.2
2017-Sep-16 23:00N 42°25' W 070°48'612.3
2017-Sep-16 22:31N 42°22' W 070°55'3 6.8
2017-Sep-16 22:01N 42°20' W 070°59'2 4.2
2017-Sep-16 21:31N 42°21' W 071°02'0 0.6
2017-Sep-16 20:58N 42°21' W 071°02'0 0.0
2017-Sep-16 20:28N 42°21' W 071°02'0 0.0
2017-Sep-16 19:58N 42°21' W 071°02'0 0.0
2017-Sep-16 19:28N 42°21' W 071°02'0 0.0
2017-Sep-16 18:58N 42°21' W 071°02'0 0.0
2017-Sep-16 18:28N 42°21' W 071°02'0 0.0
2017-Sep-16 17:58N 42°21' W 071°02'0 0.0
2017-Sep-16 17:28N 42°21' W 071°02'0 0.0
2017-Sep-16 16:58N 42°21' W 071°02'0 0.0
2017-Sep-16 16:28N 42°21' W 071°02'0 0.0
2017-Sep-16 15:58N 42°21' W 071°02'0 0.0
2017-Sep-16 15:28N 42°21' W 071°02'0 0.0
2017-Sep-16 14:55N 42°21' W 071°02'0 0.0
2017-Sep-16 14:28N 42°21' W 071°02'0 0.0
2017-Sep-16 13:58N 42°21' W 071°02'0 0.0
2017-Sep-16 13:28N 42°21' W 071°02'0 0.0
2017-Sep-16 12:58N 42°21' W 071°02'0 0.0
2017-Sep-16 12:28N 42°21' W 071°02'0 0.0
2017-Sep-16 11:58N 42°21' W 071°02'0 0.0
2017-Sep-16 11:28N 42°21' W 071°02'0 0.0
2017-Sep-16 10:58N 42°21' W 071°02'0 0.6
2017-Sep-16 10:30N 42°21' W 071°02'3 6.2
2017-Sep-16 10:00N 42°20' W 070°57'611.3
2017-Sep-16 09:30N 42°24' W 070°51'612.6
2017-Sep-16 09:00N 42°27' W 070°44'816.5
2017-Sep-16 08:31N 42°32' W 070°35'816.5
2017-Sep-16 08:00N 42°37' W 070°26'816.5
2017-Sep-16 07:30N 42°42' W 070°17'816.7
2017-Sep-16 07:00N 42°46' W 070°08'816.7
2017-Sep-16 06:30N 42°52' W 069°59'916.5
2017-Sep-16 06:00N 42°57' W 069°50'365 7.6
2017-Sep-14 06:00N 44°48' W 061°48'   360 / 251008.010.8 17.0 17.5
Track history (hours):
 
Tides and Currents Weather Stations Pressure Air Temp Water Temp Dewpoint Dewpoint Depression Visibility Wind Speed Wind Dir Waves Ship Positions

Veendam (Netherlands)

Last reported at 2017-Sep-17 02:36 UTC. Time now 2017-Sep-20 00:34 UTC.
Position N 42°59' W 069°45'.

Type: Ship. MMSI: 246506000.

Date/timePositionNaut miles runAvg speedWind from/ knotsBaromVisibWave heightAir tempDewpointWater temp
2017-Sep-17 02:36N 42°59' W 069°45'113.7
2017-Sep-17 02:30N 42°59' W 069°47'714.2
2017-Sep-17 01:59N 42°54' W 069°55'816.6
2017-Sep-17 01:30N 42°49' W 070°03'816.7
2017-Sep-17 01:00N 42°44' W 070°12'816.7
2017-Sep-17 00:30N 42°39' W 070°21'816.4
2017-Sep-17 00:00N 42°34' W 070°29'816.2
2017-Sep-16 23:30N 42°30' W 070°39'816.2
2017-Sep-16 23:00N 42°25' W 070°48'612.3
2017-Sep-16 22:31N 42°22' W 070°55'3 6.8
2017-Sep-16 22:01N 42°20' W 070°59'2 4.2
2017-Sep-16 21:31N 42°21' W 071°02'0 0.6
2017-Sep-16 20:58N 42°21' W 071°02'0 0.0
2017-Sep-16 20:28N 42°21' W 071°02'0 0.0
2017-Sep-16 19:58N 42°21' W 071°02'0 0.0
2017-Sep-16 19:28N 42°21' W 071°02'0 0.0
2017-Sep-16 18:58N 42°21' W 071°02'0 0.0
2017-Sep-16 18:28N 42°21' W 071°02'0 0.0
2017-Sep-16 17:58N 42°21' W 071°02'0 0.0
2017-Sep-16 17:28N 42°21' W 071°02'0 0.0
2017-Sep-16 16:58N 42°21' W 071°02'0 0.0
2017-Sep-16 16:28N 42°21' W 071°02'0 0.0
2017-Sep-16 15:58N 42°21' W 071°02'0 0.0
2017-Sep-16 15:28N 42°21' W 071°02'0 0.0
2017-Sep-16 14:55N 42°21' W 071°02'0 0.0
2017-Sep-16 14:28N 42°21' W 071°02'0 0.0
2017-Sep-16 13:58N 42°21' W 071°02'0 0.0
2017-Sep-16 13:28N 42°21' W 071°02'0 0.0
2017-Sep-16 12:58N 42°21' W 071°02'0 0.0
2017-Sep-16 12:28N 42°21' W 071°02'0 0.0
2017-Sep-16 11:58N 42°21' W 071°02'0 0.0
2017-Sep-16 11:28N 42°21' W 071°02'0 0.0
2017-Sep-16 10:58N 42°21' W 071°02'0 0.6
2017-Sep-16 10:30N 42°21' W 071°02'3 6.2
2017-Sep-16 10:00N 42°20' W 070°57'611.3
2017-Sep-16 09:30N 42°24' W 070°51'612.6
2017-Sep-16 09:00N 42°27' W 070°44'816.5
2017-Sep-16 08:31N 42°32' W 070°35'816.5
2017-Sep-16 08:00N 42°37' W 070°26'816.5
2017-Sep-16 07:30N 42°42' W 070°17'816.7
2017-Sep-16 07:00N 42°46' W 070°08'816.7
2017-Sep-16 06:30N 42°52' W 069°59'916.5
2017-Sep-16 06:00N 42°57' W 069°50'365 7.6
2017-Sep-14 06:00N 44°48' W 061°48'   360 / 251008.010.8 17.0 17.5

Dump ship's entire track history